^^
Meteo Knjazevac Station Historical Data
Daily Summary for May 26, 2022 Units:  Metric    English   Both
Daily Weekly Monthly Yearly Custom
  High: Low: Average:
Temperature: 28.2 °C 14.6 °C 21.6 °C
Dew Point: 19 °C 12.1 °C 15.4 °C
Humidity: 88% 51% 69%
Wind Speed: 16.1km/h 0km/h 7.1km/h
Wind Gust: 32.2km/h - -
Wind- - WSW
Pressure: 1023.2 hPa 1017.8 hPa -
Precipitation: 0 mm    
Historical Graphs
 
 
Tabular Data for May 26, 2022
Time Temperature Dew Point Pressure Wind Wind Speed Wind Gust Humidity Rainfall Rate (Hourly) solar Conditions
00:00 16.1 °C 12.4 °C 1018.2 hPa West 1.6 km/h 6.4 km/h 79% 0 mm 0 W/m2
00:10 15.9 °C 12.4 °C 1017.8 hPa WNW 1.6 km/h 6.4 km/h 80% 0 mm 0 W/m2
00:20 15.8 °C 12.3 °C 1018.2 hPa WSW 3.2 km/h 8 km/h 80% 0 mm 0 W/m2
00:30 15.7 °C 12.3 °C 1018.2 hPa WNW 3.2 km/h 6.4 km/h 80% 0 mm 0 W/m2
00:40 15.7 °C 12.4 °C 1018.5 hPa West 4.8 km/h 9.7 km/h 81% 0 mm 0 W/m2
00:50 15.6 °C 12.3 °C 1018.5 hPa West 1.6 km/h 8 km/h 81% 0 mm 0 W/m2
01:00 15.4 °C 12.2 °C 1018.5 hPa WNW 3.2 km/h 8 km/h 81% 0 mm 0 W/m2
01:10 15.4 °C 12.2 °C 1018.5 hPa WNW 3.2 km/h 6.4 km/h 81% 0 mm 0 W/m2
01:20 15.4 °C 12.2 °C 1018.5 hPa West 3.2 km/h 6.4 km/h 81% 0 mm 0 W/m2
01:30 15.6 °C 12.3 °C 1018.5 hPa North 1.6 km/h 6.4 km/h 81% 0 mm 0 W/m2
01:40 15.7 °C 12.4 °C 1018.5 hPa Calm   4.8 km/h 81% 0 mm 0 W/m2
01:50 15.8 °C 12.6 °C 1018.5 hPa North 1.6 km/h 8 km/h 81% 0 mm 0 W/m2
02:00 16 °C 12.7 °C 1018.8 hPa NE 3.2 km/h 6.4 km/h 81% 0 mm 0 W/m2
02:10 16 °C 12.6 °C 1018.8 hPa North 1.6 km/h 4.8 km/h 80% 0 mm 0 W/m2
02:20 15.8 °C 12.6 °C 1018.8 hPa North 1.6 km/h 6.4 km/h 81% 0 mm 0 W/m2
02:30 15.6 °C 12.7 °C 1018.5 hPa Calm   8 km/h 83% 0 mm 0 W/m2
02:40 15.7 °C 12.8 °C 1018.8 hPa NNW 1.6 km/h 4.8 km/h 83% 0 mm 0 W/m2
02:50 15.7 °C 12.8 °C 1018.8 hPa North 4.8 km/h 6.4 km/h 83% 0 mm 0 W/m2
03:00 16 °C 12.8 °C 1019.2 hPa NNE 8 km/h 9.7 km/h 81% 0 mm 0 W/m2
03:10 16.1 °C 12.8 °C 1019.5 hPa NW 4.8 km/h 8 km/h 81% 0 mm 0 W/m2
03:20 16 °C 12.7 °C 1019.9 hPa NE 1.6 km/h 11.3 km/h 81% 0 mm 0 W/m2
03:30 16 °C 12.7 °C 1019.9 hPa NNE 9.7 km/h 12.9 km/h 81% 0 mm 0 W/m2
03:40 16 °C 12.6 °C 1019.9 hPa NE 4.8 km/h 9.7 km/h 80% 0 mm 0 W/m2
03:50 16 °C 12.7 °C 1019.9 hPa NE 1.6 km/h 8 km/h 81% 0 mm 0 W/m2
04:00 15.8 °C 12.5 °C 1019.9 hPa North 3.2 km/h 4.8 km/h 81% 0 mm 0 W/m2
04:10 15.6 °C 12.4 °C 1020.2 hPa North 1.6 km/h 4.8 km/h 81% 0 mm 0 W/m2
04:20 15.6 °C 12.3 °C 1019.9 hPa Calm     81% 0 mm 0 W/m2
04:30 15.4 °C 12.5 °C 1020.2 hPa NW 1.6 km/h 3.2 km/h 83% 0 mm 0 W/m2
04:40 15.3 °C 12.4 °C 1020.2 hPa NNW 1.6 km/h 4.8 km/h 83% 0 mm 0 W/m2
04:50 15.1 °C 12.4 °C 1020.2 hPa WSW 3.2 km/h 4.8 km/h 84% 0 mm 0 W/m2
05:00 14.8 °C 12.1 °C 1020.2 hPa West 1.6 km/h 4.8 km/h 84% 0 mm 2 W/m2
05:10 14.6 °C 12.1 °C 1020.2 hPa Calm   3.2 km/h 85% 0 mm 5 W/m2
05:20 14.6 °C 12.1 °C 1020.2 hPa Calm   3.2 km/h 85% 0 mm 10 W/m2
05:30 14.6 °C 12.3 °C 1020.2 hPa Calm   3.2 km/h 86% 0 mm 10 W/m2
05:40 14.7 °C 12.6 °C 1020.2 hPa NNW 3.2 km/h 4.8 km/h 87% 0.25 mm 20 W/m2
05:50 14.7 °C 12.4 °C 1020.5 hPa WNW 1.6 km/h 6.4 km/h 86% 0 mm 29 W/m2
06:00 14.7 °C 12.6 °C 1020.5 hPa NW 4.8 km/h 8 km/h 87% 0 mm 35 W/m2
06:10 14.8 °C 12.8 °C 1020.5 hPa North 3.2 km/h 4.8 km/h 88% 0 mm 49 W/m2
06:30 15.2 °C 12.9 °C 1020.9 hPa Calm   6.4 km/h 86% 0 mm 86 W/m2
06:40 15.3 °C 12.9 °C 1020.9 hPa Calm   3.2 km/h 86% 0 mm 101 W/m2
06:50 15.5 °C 13.2 °C 1020.9 hPa WNW 1.6 km/h 3.2 km/h 86% 0 mm 100 W/m2
07:00 15.7 °C 13.4 °C 1021.2 hPa Calm   3.2 km/h 86% 0 mm 201 W/m2
07:10 16.1 °C 13.5 °C 1021.2 hPa Calm   3.2 km/h 85% 0 mm 230 W/m2
07:20 16.5 °C 13.8 °C 1021.6 hPa WNW 1.6 km/h 3.2 km/h 84% 0 mm 237 W/m2
07:30 16.9 °C 13.7 °C 1021.6 hPa Calm   4.8 km/h 81% 0 mm 279 W/m2
07:40 17.6 °C 14.2 °C 1021.6 hPa Calm   1.6 km/h 81% 0 mm 251 W/m2
07:50 18.2 °C 14.6 °C 1021.9 hPa WNW 1.6 km/h 4.8 km/h 79% 0 mm 369 W/m2
08:00 19.1 °C 15.5 °C 1021.9 hPa WSW 9.7 km/h 17.7 km/h 80% 0 mm 382 W/m2
08:10 20.1 °C 16.3 °C 1021.9 hPa WSW 14.5 km/h 22.5 km/h 79% 0 mm 446 W/m2
08:20 20.8 °C 16.6 °C 1021.9 hPa WSW 11.3 km/h 22.5 km/h 77% 0 mm 433 W/m2
08:30 21.4 °C 16.8 °C 1022.2 hPa WSW 9.7 km/h 22.5 km/h 75% 0 mm 416 W/m2
08:40 21.7 °C 16.9 °C 1022.2 hPa West 12.9 km/h 22.5 km/h 74% 0 mm 508 W/m2
08:50 22.2 °C 17.1 °C 1022.2 hPa West 14.5 km/h 22.5 km/h 73% 0 mm 554 W/m2
09:00 22.5 °C 17.2 °C 1022.2 hPa West 12.9 km/h 25.7 km/h 72% 0 mm 598 W/m2
09:10 22.9 °C 17.2 °C 1022.2 hPa West 11.3 km/h 24.1 km/h 70% 0 mm 672 W/m2
09:20 23.2 °C 17.2 °C 1022.2 hPa WNW 11.3 km/h 24.1 km/h 69% 0 mm 671 W/m2
09:30 23.6 °C 17.3 °C 1022.2 hPa West 12.9 km/h 22.5 km/h 68% 0 mm 713 W/m2
09:40 24.1 °C 17.6 °C 1022.2 hPa WNW 9.7 km/h 19.3 km/h 67% 0 mm 742 W/m2
09:50 24.4 °C 17.9 °C 1022.2 hPa West 9.7 km/h 20.9 km/h 67% 0 mm 787 W/m2
10:00 24.9 °C 17.6 °C 1022.2 hPa WNW 9.7 km/h 22.5 km/h 64% 0 mm 808 W/m2
10:10 25.3 °C 17.7 °C 1022.2 hPa WNW 14.5 km/h 25.7 km/h 63% 0 mm 823 W/m2
10:20 24.9 °C 17.4 °C 1022.6 hPa West 12.9 km/h 25.7 km/h 63% 0 mm 496 W/m2
10:30 24.7 °C 17.4 °C 1022.6 hPa West 16.1 km/h 24.1 km/h 64% 0.25 mm 808 W/m2
10:40 25 °C 17.7 °C 1022.2 hPa West 16.1 km/h 25.7 km/h 64% 0 mm 262 W/m2
10:50 25.3 °C 18 °C 1022.2 hPa West 12.9 km/h 25.7 km/h 64% 0 mm 430 W/m2
11:00 25.7 °C 18.4 °C 1022.2 hPa West 12.9 km/h 22.5 km/h 64% 0 mm 462 W/m2
11:10 26 °C 18.4 °C 1022.2 hPa West 14.5 km/h 22.5 km/h 63% 0 mm 362 W/m2
11:20 26.4 °C 18.8 °C 1022.6 hPa West 9.7 km/h 25.7 km/h 63% 0 mm 814 W/m2
11:30 26.6 °C 19 °C 1022.6 hPa West 16.1 km/h 27.4 km/h 63% 0 mm 903 W/m2
11:40 26.6 °C 18.7 °C 1022.6 hPa West 14.5 km/h 25.7 km/h 62% 0 mm 886 W/m2
11:50 26.4 °C 18.6 °C 1022.6 hPa West 16.1 km/h 24.1 km/h 62% 0 mm 923 W/m2
12:00 26.2 °C 18.6 °C 1022.6 hPa West 14.5 km/h 25.7 km/h 63% 0 mm 932 W/m2
12:10 26.4 °C 18.8 °C 1022.9 hPa West 14.5 km/h 32.2 km/h 63% 0 mm 941 W/m2
12:20 26.3 °C 18.7 °C 1022.6 hPa WNW 11.3 km/h 29 km/h 63% 0 mm 908 W/m2
12:30 26.5 °C 18.6 °C 1022.6 hPa WNW 12.9 km/h 24.1 km/h 62% 0 mm 586 W/m2
12:40 26.9 °C 18.5 °C 1022.9 hPa WNW 14.5 km/h 22.5 km/h 60% 0 mm 664 W/m2
12:50 26.8 °C 18.4 °C 1022.6 hPa West 14.5 km/h 20.9 km/h 60% 0 mm 802 W/m2
13:00 27.1 °C 18.7 °C 1022.6 hPa NW 9.7 km/h 22.5 km/h 60% 0 mm 700 W/m2
13:10 27.3 °C 18.6 °C 1022.6 hPa WNW 9.7 km/h 20.9 km/h 59% 0 mm 775 W/m2
13:20 27.4 °C 18.7 °C 1022.6 hPa West 11.3 km/h 19.3 km/h 59% 0 mm 934 W/m2
13:30 27.7 °C 18.7 °C 1022.6 hPa West 12.9 km/h 22.5 km/h 58% 0 mm 911 W/m2
13:40 27.6 °C 18.6 °C 1022.2 hPa West 16.1 km/h 25.7 km/h 58% 0 mm 909 W/m2
13:50 27.6 °C 18.6 °C 1022.2 hPa West 12.9 km/h 24.1 km/h 58% 0 mm 896 W/m2
14:00 27.7 °C 18.7 °C 1022.2 hPa WSW 11.3 km/h 22.5 km/h 58% 0 mm 885 W/m2
14:10 27.6 °C 18.6 °C 1022.2 hPa WSW 14.5 km/h 25.7 km/h 58% 0 mm 868 W/m2
14:20 27.4 °C 18.4 °C 1022.2 hPa WSW 11.3 km/h 27.4 km/h 58% 0 mm 836 W/m2
14:30 27.6 °C 18.3 °C 1021.9 hPa WSW 14.5 km/h 22.5 km/h 57% 0 mm 831 W/m2
14:40 27.7 °C 18.7 °C 1021.9 hPa West 14.5 km/h 25.7 km/h 58% 0 mm 821 W/m2
14:50 27.6 °C 18.6 °C 1021.9 hPa WSW 12.9 km/h 22.5 km/h 58% 0 mm 797 W/m2
15:00 27.5 °C 18.2 °C 1021.9 hPa West 9.7 km/h 24.1 km/h 57% 0 mm 766 W/m2
15:10 27.6 °C 18.3 °C 1021.6 hPa WSW 11.3 km/h 20.9 km/h 57% 0 mm 748 W/m2
15:20 27.9 °C 18.6 °C 1021.6 hPa West 8 km/h 19.3 km/h 57% 0 mm 715 W/m2
15:30 28.1 °C 18.2 °C 1021.6 hPa West 12.9 km/h 20.9 km/h 55% 0 mm 695 W/m2
15:40 28 °C 18.1 °C 1021.6 hPa West 9.7 km/h 20.9 km/h 55% 0 mm 668 W/m2
15:50 28.1 °C 18.2 °C 1021.6 hPa WSW 9.7 km/h 19.3 km/h 55% 0 mm 638 W/m2
16:00 28.1 °C 17.9 °C 1021.6 hPa WSW 11.3 km/h 22.5 km/h 54% 0 mm 606 W/m2
16:10 28.1 °C 17.9 °C 1021.2 hPa WSW 12.9 km/h 20.9 km/h 54% 0 mm 580 W/m2
16:20 28 °C 17.8 °C 1021.2 hPa WSW 9.7 km/h 22.5 km/h 54% 0 mm 553 W/m2
16:30 28.1 °C 17.9 °C 1021.2 hPa WSW 11.3 km/h 20.9 km/h 54% 0 mm 524 W/m2
16:40 28.2 °C 18 °C 1021.2 hPa WSW 11.3 km/h 19.3 km/h 54% 0 mm 494 W/m2
16:50 28.1 °C 17.6 °C 1021.2 hPa WSW 9.7 km/h 22.5 km/h 53% 0 mm 460 W/m2
17:00 28.2 °C 17.8 °C 1021.2 hPa WSW 11.3 km/h 24.1 km/h 53% 0 mm 424 W/m2
17:10 28.2 °C 17.4 °C 1020.9 hPa WSW 14.5 km/h 22.5 km/h 52% 0 mm 394 W/m2
17:20 28 °C 17.2 °C 1020.9 hPa West 14.5 km/h 22.5 km/h 52% 0 mm 363 W/m2
17:30 28 °C 16.9 °C 1020.9 hPa West 16.1 km/h 24.1 km/h 51% 0 mm 326 W/m2
17:40 27.7 °C 16.9 °C 1020.9 hPa West 14.5 km/h 27.4 km/h 52% 0 mm 293 W/m2
17:50 27.5 °C 16.8 °C 1020.9 hPa West 14.5 km/h 22.5 km/h 52% 0 mm 266 W/m2
18:00 27.2 °C 16.6 °C 1020.9 hPa West 12.9 km/h 25.7 km/h 52% 0 mm 234 W/m2
18:10 27.1 °C 16.7 °C 1020.9 hPa West 12.9 km/h 20.9 km/h 53% 0 mm 200 W/m2
18:20 26.9 °C 16.5 °C 1020.9 hPa West 12.9 km/h 22.5 km/h 53% 0 mm 167 W/m2
18:30 26.7 °C 16.6 °C 1021.2 hPa WSW 9.7 km/h 20.9 km/h 54% 0 mm 139 W/m2
18:40 26.4 °C 16.3 °C 1021.2 hPa West 9.7 km/h 19.3 km/h 54% 0 mm 115 W/m2
18:50 26.1 °C 16.3 °C 1021.2 hPa WSW 11.3 km/h 19.3 km/h 55% 0 mm 97 W/m2
19:00 25.5 °C 15.8 °C 1021.6 hPa West 9.7 km/h 20.9 km/h 55% 0 mm 72 W/m2
19:10 25.2 °C 15.8 °C 1021.6 hPa West 9.7 km/h 17.7 km/h 56% 0 mm 51 W/m2
19:20 24.9 °C 15.8 °C 1021.6 hPa West 8 km/h 17.7 km/h 57% 0 mm 36 W/m2
19:30 24.6 °C 15.5 °C 1021.6 hPa West 8 km/h 12.9 km/h 57% 0 mm 24 W/m2
19:40 24.2 °C 15.4 °C 1021.6 hPa West 4.8 km/h 12.9 km/h 58% 0 mm 14 W/m2
19:50 23.8 °C 15.3 °C 1021.6 hPa WSW 4.8 km/h 9.7 km/h 59% 0 mm 8 W/m2
20:00 23.4 °C 14.9 °C 1021.9 hPa WSW 4.8 km/h 8 km/h 59% 0 mm 3 W/m2
20:10 23.1 °C 14.8 °C 1021.9 hPa WSW 1.6 km/h 8 km/h 60% 0 mm 0 W/m2
20:20 22.7 °C 15.1 °C 1021.9 hPa WNW 1.6 km/h 6.4 km/h 62% 0 mm 0 W/m2
20:30 22.4 °C 14.8 °C 1022.2 hPa West 1.6 km/h 8 km/h 62% 0 mm 0 W/m2
20:40 22.1 °C 14.7 °C 1022.2 hPa NW 1.6 km/h 8 km/h 63% 0 mm 0 W/m2
20:50 21.7 °C 14.6 °C 1022.2 hPa SW 1.6 km/h 3.2 km/h 64% 0 mm 0 W/m2
21:00 21.3 °C 14.9 °C 1022.6 hPa SSE 3.2 km/h 6.4 km/h 67% 0 mm 0 W/m2
21:10 20.9 °C 14.8 °C 1022.6 hPa South 1.6 km/h 4.8 km/h 68% 0 mm 0 W/m2
21:20 20.6 °C 14.4 °C 1022.6 hPa SW 1.6 km/h 3.2 km/h 68% 0 mm 0 W/m2
21:30 20.2 °C 14.3 °C 1022.9 hPa SW 1.6 km/h 3.2 km/h 69% 0 mm 0 W/m2
21:40 19.8 °C 14.2 °C 1022.9 hPa WNW 1.6 km/h 4.8 km/h 70% 0 mm 0 W/m2
21:50 19.5 °C 14.3 °C 1022.9 hPa South 1.6 km/h 8 km/h 72% 0 mm 0 W/m2
22:00 19.2 °C 14.2 °C 1022.9 hPa NNW 1.6 km/h 4.8 km/h 73% 0 mm 0 W/m2
22:10 18.8 °C 13.9 °C 1022.9 hPa SSE 1.6 km/h 4.8 km/h 73% 0 mm 0 W/m2
22:20 18.6 °C 13.8 °C 1022.9 hPa Calm   4.8 km/h 74% 0 mm 0 W/m2
22:30 18.3 °C 13.6 °C 1023.2 hPa South 3.2 km/h 8 km/h 74% 0 mm 0 W/m2
22:40 17.9 °C 13.4 °C 1023.2 hPa WSW 3.2 km/h 6.4 km/h 75% 0 mm 0 W/m2
22:50 17.8 °C 13.3 °C 1023.2 hPa WSW 1.6 km/h 8 km/h 75% 0 mm 0 W/m2
23:00 17.7 °C 13.2 °C 1023.2 hPa NW 3.2 km/h 4.8 km/h 75% 0 mm 0 W/m2
23:10 17.4 °C 13.3 °C 1023.2 hPa Calm   4.8 km/h 77% 0 mm 0 W/m2
23:20 17.2 °C 13.1 °C 1023.2 hPa Calm   4.8 km/h 77% 0 mm 0 W/m2
23:30 16.9 °C 13.1 °C 1023.2 hPa Calm   4.8 km/h 78% 0 mm 0 W/m2
23:40 16.7 °C 12.8 °C 1023.2 hPa NW 1.6 km/h 4.8 km/h 78% 0 mm 0 W/m2
23:50 16.4 °C 12.6 °C 1023.2 hPa WNW 3.2 km/h 4.8 km/h 78% 0 mm 0 W/m2
Knjazevac, Serbia
Compliments of Weather Underground - 2 mb